X  Blizu METAR Podaci o vazduhoplovstvu     EBBR Brussels Airport
Temperatura
29°C Temperatura
19°C Tačka Rose
55% Vlaga



Vetar
8 KM/S
5 MPS
2 M/S
4 Čvorovi



300°
ZSZ
Trenutna situacija

Vedro Vedro
Vazdušni pritisak 1005.76 (hPa) - 29.7 (inHg)
Vidljivost 6 (Milje) - 9.7 (km)
Aerodrom
Aerodromski kod. EBBR

Lokacija: Brussels Airport
Udaljenost: 10 (km)

Metar:
EBBR 201720Z 30004KT 270V330 CAVOK 29/19 Q1006 NOSIG

Vreme: 20-07-2024 19:20 CEST